createdAt,value
2018-08-31T00:00:49.374Z,99.90
2018-08-31T00:03:32.701Z,99.90
2018-08-31T00:08:13.630Z,99.90
2018-08-31T00:11:28.139Z,99.90
2018-08-31T00:13:56.867Z,99.90
2018-08-31T00:16:26.729Z,99.90
2018-08-31T00:18:55.474Z,99.90
2018-08-31T00:21:24.120Z,99.90
2018-08-31T00:24:04.031Z,99.90
2018-08-31T00:26:44.740Z,99.90
2018-08-31T00:29:35.259Z,99.90
2018-08-31T00:36:22.795Z,99.90
2018-08-31T00:41:03.642Z,99.90
2018-08-31T00:43:43.409Z,99.90
2018-08-31T00:46:12.304Z,99.90
2018-08-31T00:48:42.571Z,99.90
2018-08-31T00:51:17.756Z,99.90
2018-08-31T00:53:46.798Z,99.90
2018-08-31T00:56:15.670Z,99.90
2018-08-31T00:58:44.367Z,99.90
2018-08-31T01:01:14.778Z,99.90
2018-08-31T01:03:43.428Z,99.90
2018-08-31T01:06:12.137Z,99.90
2018-08-31T01:08:40.788Z,99.90
2018-08-31T01:11:09.567Z,99.90
2018-08-31T01:13:38.272Z,99.90
2018-08-31T01:16:07.044Z,99.90
2018-08-31T01:18:35.753Z,99.90
2018-08-31T01:21:04.528Z,99.90
2018-08-31T01:23:33.247Z,99.90
2018-08-31T01:26:01.988Z,99.90
2018-08-31T01:28:30.642Z,99.90
2018-08-31T01:30:59.353Z,99.90
2018-08-31T01:33:28.102Z,99.90
2018-08-31T01:35:56.821Z,99.90
2018-08-31T01:38:25.492Z,99.90
2018-08-31T01:40:54.366Z,99.90
2018-08-31T01:43:23.076Z,99.90
2018-08-31T01:45:51.809Z,99.90
2018-08-31T01:48:20.919Z,99.90
2018-08-31T01:50:55.449Z,99.90
2018-08-31T01:53:28.375Z,99.90
2018-08-31T01:55:57.084Z,99.90
2018-08-31T01:58:25.737Z,99.90
2018-08-31T02:00:54.428Z,99.90
2018-08-31T02:03:23.902Z,99.90
2018-08-31T02:05:52.575Z,99.90
2018-08-31T02:08:21.272Z,99.90
2018-08-31T02:10:50.017Z,99.90
2018-08-31T02:13:18.859Z,99.90
2018-08-31T02:15:47.594Z,99.90
2018-08-31T02:19:35.681Z,99.90
2018-08-31T02:22:04.481Z,99.90
2018-08-31T02:24:33.256Z,99.90
2018-08-31T02:27:02.291Z,99.90
2018-08-31T02:29:31.011Z,99.90
2018-08-31T02:31:59.796Z,99.90
2018-08-31T02:34:28.479Z,99.90
2018-08-31T02:36:57.164Z,99.90
2018-08-31T02:39:25.930Z,99.90
2018-08-31T02:41:54.557Z,99.90
2018-08-31T02:44:23.214Z,99.90
2018-08-31T02:46:52.393Z,99.90
2018-08-31T02:49:21.699Z,99.90
2018-08-31T02:51:50.358Z,99.90
2018-08-31T02:54:19.069Z,99.90
2018-08-31T02:56:47.753Z,99.90
2018-08-31T02:59:16.457Z,99.90
2018-08-31T03:01:45.127Z,99.90
2018-08-31T03:04:15.073Z,99.90
2018-08-31T03:06:46.335Z,99.90
2018-08-31T03:09:15.134Z,99.90
2018-08-31T03:11:44.003Z,99.90
2018-08-31T03:16:46.693Z,99.90
2018-08-31T03:19:15.420Z,99.90
2018-08-31T03:21:44.118Z,99.90
2018-08-31T03:24:12.989Z,99.90
2018-08-31T03:26:41.669Z,99.90
2018-08-31T03:31:44.380Z,99.90
2018-08-31T03:34:13.084Z,99.90
2018-08-31T03:36:42.642Z,99.90
2018-08-31T03:39:11.416Z,99.90
2018-08-31T03:41:41.056Z,99.90
2018-08-31T03:44:09.793Z,99.90
2018-08-31T03:46:38.470Z,99.90
2018-08-31T03:49:07.202Z,99.90
2018-08-31T03:51:39.799Z,99.90
2018-08-31T03:54:08.933Z,99.90
2018-08-31T03:56:37.603Z,99.90
2018-08-31T03:59:06.705Z,99.90
2018-08-31T04:01:35.455Z,99.90
2018-08-31T04:04:04.231Z,99.90
2018-08-31T04:06:32.919Z,99.90
2018-08-31T04:09:01.680Z,99.90
2018-08-31T04:11:30.383Z,99.90
2018-08-31T04:13:59.044Z,99.90
2018-08-31T04:16:27.762Z,99.90
2018-08-31T04:18:56.426Z,99.90
2018-08-31T04:21:25.078Z,99.90
2018-08-31T04:23:53.770Z,99.90
2018-08-31T04:26:22.484Z,99.90
2018-08-31T04:28:51.226Z,99.90
2018-08-31T04:31:19.985Z,99.90
2018-08-31T04:33:48.767Z,99.90
2018-08-31T04:36:17.442Z,99.90
2018-08-31T04:38:46.208Z,99.90
2018-08-31T04:41:15.732Z,99.90
2018-08-31T04:43:44.492Z,99.90
2018-08-31T04:46:13.249Z,99.90
2018-08-31T04:48:41.958Z,99.90
2018-08-31T04:51:10.684Z,99.90
2018-08-31T04:53:39.397Z,99.90
2018-08-31T04:56:08.109Z,99.90
2018-08-31T04:58:36.911Z,99.90
2018-08-31T05:01:06.117Z,99.90
2018-08-31T05:03:34.848Z,99.90
2018-08-31T05:06:03.621Z,99.90
2018-08-31T05:08:32.311Z,99.90
2018-08-31T05:11:01.278Z,99.90
2018-08-31T05:13:29.983Z,99.90
2018-08-31T05:15:58.691Z,99.90
2018-08-31T05:18:28.332Z,99.90
2018-08-31T05:20:57.010Z,99.90
2018-08-31T05:23:25.694Z,99.90
2018-08-31T05:25:54.426Z,99.90
2018-08-31T05:28:24.007Z,99.90
2018-08-31T05:30:53.340Z,99.90
2018-08-31T05:33:22.171Z,99.90
2018-08-31T05:35:50.903Z,99.90
2018-08-31T05:38:20.163Z,99.90
2018-08-31T05:40:50.053Z,99.90
2018-08-31T05:43:18.850Z,99.90
2018-08-31T05:45:47.586Z,99.90
2018-08-31T05:48:16.290Z,99.90
2018-08-31T05:50:45.000Z,99.90
2018-08-31T05:53:13.711Z,99.90
2018-08-31T05:55:42.591Z,99.90
2018-08-31T05:58:11.369Z,99.90
2018-08-31T06:00:40.101Z,99.90
2018-08-31T06:03:09.494Z,99.90
2018-08-31T06:05:38.197Z,99.90
2018-08-31T06:08:06.989Z,99.90
2018-08-31T06:10:36.564Z,99.90
2018-08-31T06:13:07.120Z,99.90
2018-08-31T06:15:35.833Z,99.90
2018-08-31T06:18:06.232Z,99.90
2018-08-31T06:20:35.272Z,99.90
2018-08-31T06:23:04.356Z,99.90
2018-08-31T06:25:33.060Z,99.90
2018-08-31T06:28:02.109Z,99.90
2018-08-31T06:30:30.810Z,99.90
2018-08-31T06:33:00.980Z,99.90
2018-08-31T06:35:30.009Z,99.90
2018-08-31T06:38:00.890Z,99.90
2018-08-31T06:40:29.672Z,99.90
2018-08-31T06:42:58.478Z,99.90
2018-08-31T06:45:27.383Z,99.90
2018-08-31T06:47:56.134Z,99.90
2018-08-31T06:50:26.032Z,99.90
2018-08-31T06:52:56.797Z,99.90
2018-08-31T06:55:25.599Z,99.90
2018-08-31T06:57:56.671Z,99.90
2018-08-31T07:00:25.436Z,99.90
2018-08-31T07:02:54.433Z,99.90
2018-08-31T07:05:23.198Z,99.90
2018-08-31T07:07:52.051Z,99.90
2018-08-31T07:10:20.986Z,99.90
2018-08-31T07:12:52.824Z,99.90
2018-08-31T07:15:22.004Z,99.90
2018-08-31T07:17:51.655Z,99.90
2018-08-31T07:20:20.903Z,99.90
2018-08-31T07:22:51.165Z,99.90
2018-08-31T07:25:22.398Z,99.90
2018-08-31T07:27:51.435Z,99.90
2018-08-31T07:30:20.732Z,99.90
2018-08-31T07:32:50.523Z,99.90
2018-08-31T07:35:21.787Z,99.90
2018-08-31T07:37:51.063Z,99.90
2018-08-31T07:40:20.432Z,99.90
2018-08-31T07:42:49.741Z,99.90
2018-08-31T07:45:18.541Z,99.90
2018-08-31T07:47:47.308Z,99.90
2018-08-31T07:50:18.547Z,99.90
2018-08-31T07:52:49.423Z,99.90
2018-08-31T07:55:22.307Z,99.90
2018-08-31T07:57:55.596Z,99.90
2018-08-31T08:00:25.907Z,99.90
2018-08-31T08:02:54.744Z,99.90
2018-08-31T08:05:28.097Z,99.90
2018-08-31T08:07:59.844Z,99.90
2018-08-31T08:10:29.496Z,99.90
2018-08-31T08:13:00.791Z,99.90
2018-08-31T08:15:30.070Z,99.90
2018-08-31T08:17:59.132Z,99.90
2018-08-31T08:20:30.903Z,99.90
2018-08-31T08:23:00.186Z,99.90
2018-08-31T08:25:29.943Z,99.90
2018-08-31T08:27:58.835Z,99.90
2018-08-31T08:30:27.829Z,99.90
2018-08-31T08:32:57.407Z,99.90
2018-08-31T08:35:26.233Z,99.90
2018-08-31T08:37:55.469Z,99.90
2018-08-31T08:40:24.196Z,99.90
2018-08-31T08:42:54.040Z,99.90
2018-08-31T08:45:22.808Z,99.90
2018-08-31T08:47:53.280Z,99.90
2018-08-31T08:50:22.754Z,99.90
2018-08-31T08:52:53.434Z,99.90
2018-08-31T08:55:22.222Z,99.90
2018-08-31T08:57:50.948Z,99.90
2018-08-31T09:00:20.244Z,99.90
2018-08-31T09:02:49.025Z,99.90
2018-08-31T09:05:17.776Z,99.90
2018-08-31T09:07:46.902Z,99.90
2018-08-31T09:10:16.432Z,99.90
2018-08-31T09:12:45.619Z,99.90
2018-08-31T09:15:14.484Z,99.90
2018-08-31T09:17:43.321Z,99.90
2018-08-31T09:20:12.255Z,99.90
2018-08-31T09:22:41.049Z,99.90
2018-08-31T09:25:10.956Z,99.90
2018-08-31T09:27:42.640Z,99.90
2018-08-31T09:30:17.392Z,99.90
2018-08-31T09:32:47.780Z,96.90
2018-08-31T09:35:17.699Z,97.80
2018-08-31T09:37:47.195Z,96.80
2018-08-31T09:40:17.822Z,96.20
2018-08-31T09:42:46.504Z,94.00
2018-08-31T09:45:18.182Z,94.00
2018-08-31T09:47:48.177Z,92.70
2018-08-31T09:50:17.558Z,91.70
2018-08-31T09:52:47.327Z,92.50
2018-08-31T09:55:16.515Z,87.70
2018-08-31T09:57:45.453Z,91.00
2018-08-31T10:00:18.558Z,91.20
2018-08-31T10:02:54.535Z,90.70
2018-08-31T10:05:26.107Z,86.90
2018-08-31T10:07:58.088Z,85.70
2018-08-31T10:10:26.850Z,78.20
2018-08-31T10:12:56.278Z,83.00
2018-08-31T10:15:25.065Z,84.10
2018-08-31T10:17:54.537Z,86.90
2018-08-31T10:20:24.090Z,89.20
2018-08-31T10:22:52.928Z,91.10
2018-08-31T10:25:23.096Z,90.50
2018-08-31T10:27:53.619Z,89.80
2018-08-31T10:30:23.607Z,86.50
2018-08-31T10:32:53.554Z,87.40
2018-08-31T10:35:26.655Z,87.00
2018-08-31T10:37:55.782Z,89.50
2018-08-31T10:40:27.352Z,88.30
2018-08-31T10:42:56.345Z,89.30
2018-08-31T10:45:26.955Z,90.90
2018-08-31T10:47:56.742Z,91.00
2018-08-31T10:50:25.518Z,91.90
2018-08-31T10:52:54.482Z,87.90
2018-08-31T10:55:23.246Z,82.60
2018-08-31T10:57:52.650Z,82.30
2018-08-31T11:00:24.080Z,84.20
2018-08-31T11:02:54.515Z,85.30
2018-08-31T11:05:26.104Z,86.30
2018-08-31T11:07:56.998Z,84.10
2018-08-31T11:10:28.352Z,83.70
2018-08-31T11:12:59.255Z,83.60
2018-08-31T11:15:31.766Z,83.80
2018-08-31T11:18:09.283Z,83.50
2018-08-31T11:20:38.630Z,81.30
2018-08-31T11:23:21.764Z,82.10
2018-08-31T11:25:51.434Z,81.60
2018-08-31T11:28:24.220Z,85.50
2018-08-31T11:30:53.813Z,85.80
2018-08-31T11:33:22.563Z,86.10
2018-08-31T11:35:51.938Z,86.40
2018-08-31T11:38:22.210Z,87.20
2018-08-31T11:42:11.027Z,89.60
2018-08-31T11:44:40.498Z,90.60
2018-08-31T11:47:10.700Z,91.50
2018-08-31T11:49:39.574Z,91.40
2018-08-31T11:52:11.480Z,91.90
2018-08-31T11:54:40.520Z,92.20
2018-08-31T11:57:10.188Z,93.70
2018-08-31T11:59:39.496Z,93.30
2018-08-31T12:02:09.494Z,91.80
2018-08-31T12:04:39.976Z,91.50
2018-08-31T12:07:11.649Z,90.40
2018-08-31T12:09:41.004Z,88.10
2018-08-31T12:12:10.334Z,90.10
2018-08-31T12:14:44.610Z,91.60
2018-08-31T12:17:13.802Z,91.60
2018-08-31T12:19:44.635Z,91.50
2018-08-31T12:22:13.477Z,92.20
2018-08-31T12:24:45.177Z,91.10
2018-08-31T12:27:14.699Z,89.70
2018-08-31T12:29:46.033Z,90.30
2018-08-31T12:32:15.628Z,90.20
2018-08-31T12:34:45.597Z,89.60
2018-08-31T12:37:16.361Z,90.70
2018-08-31T12:39:45.475Z,90.60
2018-08-31T12:42:14.395Z,90.60
2018-08-31T12:44:49.016Z,90.90
2018-08-31T12:47:23.295Z,90.60
2018-08-31T12:49:52.201Z,91.40
2018-08-31T12:52:22.088Z,91.80
2018-08-31T12:54:54.405Z,92.30
2018-08-31T12:57:24.160Z,92.20
2018-08-31T12:59:58.813Z,92.30
2018-08-31T13:02:31.168Z,91.90
2018-08-31T13:05:01.854Z,91.70
2018-08-31T13:07:34.173Z,90.50
2018-08-31T13:10:03.267Z,90.70
2018-08-31T13:12:32.801Z,89.10
2018-08-31T13:15:03.217Z,87.40
2018-08-31T13:17:37.268Z,86.10
2018-08-31T13:20:07.512Z,84.80
2018-08-31T13:22:37.295Z,84.10
2018-08-31T13:25:06.327Z,85.20
2018-08-31T13:27:36.467Z,83.20
2018-08-31T13:30:11.554Z,84.10
2018-08-31T13:32:42.563Z,85.80
2018-08-31T13:35:13.340Z,82.70
2018-08-31T13:37:43.021Z,86.30
2018-08-31T13:40:11.938Z,85.40
2018-08-31T13:42:40.697Z,88.60
2018-08-31T13:45:10.285Z,90.70
2018-08-31T13:47:39.481Z,91.60
2018-08-31T13:50:12.378Z,91.90
2018-08-31T13:52:41.591Z,92.40
2018-08-31T13:55:10.887Z,89.10
2018-08-31T13:57:45.216Z,89.50
2018-08-31T14:00:15.599Z,88.90
2018-08-31T14:02:46.574Z,85.80
2018-08-31T14:05:18.518Z,83.90
2018-08-31T14:07:49.343Z,82.40
2018-08-31T14:10:19.155Z,82.60
2018-08-31T14:12:48.715Z,84.00
2018-08-31T14:15:22.706Z,84.70
2018-08-31T14:17:51.947Z,85.00
2018-08-31T14:20:21.591Z,85.50
2018-08-31T14:22:51.741Z,85.30
2018-08-31T14:25:21.510Z,86.40
2018-08-31T14:27:50.882Z,86.80
2018-08-31T14:30:23.274Z,88.90
2018-08-31T14:33:00.565Z,88.70
2018-08-31T14:35:30.198Z,88.10
2018-08-31T14:38:00.686Z,88.20
2018-08-31T14:40:36.016Z,87.70
2018-08-31T14:43:06.114Z,88.60
2018-08-31T14:45:36.160Z,88.40
2018-08-31T14:48:06.724Z,89.50
2018-08-31T14:50:36.264Z,89.80
2018-08-31T14:53:10.283Z,88.30
2018-08-31T14:55:41.592Z,86.70
2018-08-31T14:58:12.704Z,88.20
2018-08-31T15:00:42.475Z,87.50
2018-08-31T15:03:11.238Z,88.40
2018-08-31T15:06:42.658Z,87.20
2018-08-31T15:09:11.988Z,89.70
2018-08-31T15:11:41.199Z,87.70
2018-08-31T15:14:09.980Z,89.80
2018-08-31T15:16:39.447Z,87.40
2018-08-31T15:19:10.022Z,88.80
2018-08-31T15:21:52.322Z,89.50
2018-08-31T15:24:22.414Z,89.20
2018-08-31T15:26:56.180Z,87.90
2018-08-31T15:29:25.721Z,90.10
2018-08-31T15:32:01.487Z,89.90
2018-08-31T15:34:34.196Z,90.90
2018-08-31T15:37:03.640Z,91.10
2018-08-31T15:39:33.827Z,91.00
2018-08-31T15:42:05.727Z,90.60
2018-08-31T15:44:35.267Z,90.30
2018-08-31T15:47:10.455Z,90.30
2018-08-31T15:49:43.426Z,90.50
2018-08-31T15:52:22.019Z,90.90
2018-08-31T15:54:54.211Z,90.90
2018-08-31T15:57:38.438Z,90.80
2018-08-31T16:00:11.824Z,90.10
2018-08-31T16:02:42.603Z,90.60
2018-08-31T16:05:16.243Z,90.40
2018-08-31T16:07:50.647Z,90.40
2018-08-31T16:10:20.428Z,89.30
2018-08-31T16:12:54.964Z,90.00
2018-08-31T16:15:24.044Z,89.80
2018-08-31T16:17:55.665Z,89.60
2018-08-31T16:20:25.172Z,89.40
2018-08-31T16:22:54.579Z,90.50
2018-08-31T16:25:25.164Z,90.90
2018-08-31T16:27:56.246Z,90.90
2018-08-31T16:30:26.202Z,90.30
2018-08-31T16:32:55.483Z,90.60
2018-08-31T16:35:25.104Z,90.90
2018-08-31T16:37:54.040Z,91.40
2018-08-31T16:40:24.472Z,91.40
2018-08-31T16:42:56.391Z,91.60
2018-08-31T16:45:25.170Z,91.40
2018-08-31T16:47:54.292Z,92.00
2018-08-31T16:50:27.553Z,91.80
2018-08-31T16:52:56.263Z,92.20
2018-08-31T16:55:24.966Z,92.20
2018-08-31T16:57:54.270Z,92.60
2018-08-31T17:00:23.260Z,92.60
2018-08-31T17:02:53.663Z,92.60
2018-08-31T17:05:23.848Z,92.90
2018-08-31T17:07:54.120Z,92.60
2018-08-31T17:10:24.560Z,93.00
2018-08-31T17:12:55.234Z,93.50
2018-08-31T17:15:29.989Z,93.30
2018-08-31T17:18:00.255Z,93.70
2018-08-31T17:20:30.140Z,94.70
2018-08-31T17:23:00.101Z,94.90
2018-08-31T17:25:31.742Z,95.00
2018-08-31T17:28:08.483Z,95.10
2018-08-31T17:30:45.667Z,95.30
2018-08-31T17:33:20.463Z,95.60
2018-08-31T17:35:54.487Z,95.30
2018-08-31T17:38:25.002Z,95.50
2018-08-31T17:40:58.284Z,95.90
2018-08-31T17:43:28.214Z,95.80
2018-08-31T17:45:59.435Z,96.00
2018-08-31T17:48:31.013Z,95.60
2018-08-31T17:51:02.832Z,96.00
2018-08-31T17:53:33.293Z,96.50
2018-08-31T17:56:02.350Z,95.90
2018-08-31T17:58:32.248Z,96.30
2018-08-31T18:01:03.299Z,97.00
2018-08-31T18:03:35.853Z,96.50
2018-08-31T18:06:06.175Z,96.90
2018-08-31T18:08:39.267Z,97.00
2018-08-31T18:11:08.618Z,97.70
2018-08-31T18:13:43.057Z,97.50
2018-08-31T18:16:13.749Z,98.10
2018-08-31T18:18:43.130Z,98.30
2018-08-31T18:21:13.605Z,98.80
2018-08-31T18:23:43.675Z,99.10
2018-08-31T18:26:12.716Z,99.70
2018-08-31T18:28:41.672Z,99.90
2018-08-31T18:31:11.123Z,99.90
2018-08-31T18:33:41.386Z,99.90
2018-08-31T18:36:12.262Z,99.90
2018-08-31T18:38:44.636Z,99.90
2018-08-31T18:41:14.267Z,99.90
2018-08-31T18:43:45.685Z,99.90
2018-08-31T18:46:17.549Z,99.90
2018-08-31T18:48:52.245Z,99.90
2018-08-31T18:51:24.554Z,99.90
2018-08-31T18:53:58.237Z,99.90
2018-08-31T18:56:27.221Z,99.90
2018-08-31T18:58:57.719Z,99.90
2018-08-31T19:01:27.454Z,99.90
2018-08-31T19:03:56.250Z,99.90
2018-08-31T19:06:25.501Z,99.90
2018-08-31T19:08:54.462Z,99.90
2018-08-31T19:11:27.414Z,99.90
2018-08-31T19:13:57.181Z,99.90
2018-08-31T19:16:34.201Z,99.90
2018-08-31T19:19:05.716Z,99.90
2018-08-31T19:21:34.581Z,99.90
2018-08-31T19:24:03.522Z,99.90
2018-08-31T19:26:33.345Z,99.90
2018-08-31T19:29:02.100Z,99.90
2018-08-31T19:31:31.923Z,99.90
2018-08-31T19:34:00.882Z,99.90
2018-08-31T19:36:30.768Z,99.90
2018-08-31T19:39:00.023Z,99.90
2018-08-31T19:41:29.947Z,99.90
2018-08-31T19:44:01.161Z,99.90
2018-08-31T19:46:56.029Z,99.90
2018-08-31T19:49:28.762Z,99.90
2018-08-31T19:52:09.355Z,99.90
2018-08-31T19:54:43.792Z,99.90
2018-08-31T19:57:15.254Z,99.90
2018-08-31T19:59:45.335Z,99.90
2018-08-31T20:02:16.645Z,99.90
2018-08-31T20:05:09.859Z,99.90
2018-08-31T20:07:45.962Z,99.90
2018-08-31T20:10:15.373Z,99.90
2018-08-31T20:12:48.296Z,99.90
2018-08-31T20:15:20.793Z,99.90
2018-08-31T20:17:56.560Z,99.90
2018-08-31T20:20:27.211Z,99.90
2018-08-31T20:22:57.981Z,99.90
2018-08-31T20:25:27.026Z,99.90
2018-08-31T20:28:00.589Z,99.90
2018-08-31T20:30:29.443Z,99.90
2018-08-31T20:32:58.510Z,99.90
2018-08-31T20:35:32.266Z,99.90
2018-08-31T20:38:03.919Z,99.90
2018-08-31T20:40:32.701Z,99.90
2018-08-31T20:43:03.003Z,99.90
2018-08-31T20:45:31.781Z,99.90
2018-08-31T20:48:01.116Z,99.90
2018-08-31T20:50:32.215Z,99.90
2018-08-31T20:53:02.965Z,99.90
2018-08-31T20:55:31.642Z,99.90
2018-08-31T20:58:04.323Z,99.90
2018-08-31T21:00:34.037Z,99.90
2018-08-31T21:03:04.232Z,99.90
2018-08-31T21:05:34.472Z,99.90
2018-08-31T21:08:04.280Z,99.90
2018-08-31T21:10:38.829Z,99.90
2018-08-31T21:13:09.446Z,99.90
2018-08-31T21:15:39.431Z,99.90
2018-08-31T21:18:09.237Z,99.90
2018-08-31T21:20:38.972Z,99.90
2018-08-31T21:23:09.098Z,99.90
2018-08-31T21:25:38.511Z,99.90
2018-08-31T21:28:09.370Z,99.90
2018-08-31T21:30:38.123Z,99.90
2018-08-31T21:33:06.981Z,99.90
2018-08-31T21:35:37.036Z,99.90
2018-08-31T21:38:06.717Z,99.90
2018-08-31T21:40:36.166Z,99.90
2018-08-31T21:43:04.954Z,99.90
2018-08-31T21:45:34.751Z,99.90
2018-08-31T21:48:04.012Z,99.90
2018-08-31T21:50:33.392Z,99.90
2018-08-31T21:53:02.222Z,99.90
2018-08-31T21:55:31.018Z,99.90
2018-08-31T21:58:03.431Z,99.90
2018-08-31T22:00:37.330Z,99.90
2018-08-31T22:03:06.398Z,99.90
2018-08-31T22:05:36.119Z,99.90
2018-08-31T22:08:05.323Z,99.90
2018-08-31T22:10:34.180Z,99.90
2018-08-31T22:13:05.215Z,99.90
2018-08-31T22:15:34.529Z,99.90
2018-08-31T22:18:04.259Z,99.90
2018-08-31T22:20:35.058Z,99.90
2018-08-31T22:23:06.260Z,99.90
2018-08-31T22:25:34.976Z,99.90
2018-08-31T22:28:06.527Z,99.90
2018-08-31T22:30:38.049Z,99.90
2018-08-31T22:33:07.373Z,99.90
2018-08-31T22:35:36.218Z,99.90
2018-08-31T22:38:06.561Z,99.90
2018-08-31T22:40:38.214Z,99.90
2018-08-31T22:43:08.309Z,99.90
2018-08-31T22:45:39.612Z,99.90
2018-08-31T22:48:12.919Z,99.90
2018-08-31T22:50:41.740Z,99.90
2018-08-31T22:54:31.506Z,99.90
2018-08-31T22:57:00.212Z,99.90
2018-08-31T22:59:30.167Z,99.90
2018-08-31T23:01:59.789Z,99.90
2018-08-31T23:04:28.508Z,99.90
2018-08-31T23:06:57.237Z,99.90
2018-08-31T23:09:26.409Z,99.90
2018-08-31T23:11:55.148Z,99.90
2018-08-31T23:14:24.471Z,99.90
2018-08-31T23:16:53.172Z,99.90
2018-08-31T23:19:21.910Z,99.90
2018-08-31T23:21:50.595Z,99.90
2018-08-31T23:24:20.119Z,99.90
2018-08-31T23:26:52.407Z,99.90
2018-08-31T23:29:21.094Z,99.90
2018-08-31T23:31:50.299Z,99.90
2018-08-31T23:34:19.640Z,99.90
2018-08-31T23:36:48.530Z,99.90
2018-08-31T23:39:17.221Z,99.90
2018-08-31T23:41:47.063Z,99.90
2018-08-31T23:44:15.961Z,99.90
2018-08-31T23:46:44.711Z,99.90
2018-08-31T23:50:33.402Z,99.90
2018-08-31T23:53:03.529Z,99.90
2018-08-31T23:55:32.203Z,99.90
2018-08-31T23:58:02.494Z,99.90
